Time;durP1;ratioP1;P1;durP2;ratioP2;P2;SDS_P1;SDS_P2;PMS_P1;PMS_P2;Temp;Humidity;BMP_temperature;BMP_pressure;BME280_temperature;BME280_humidity;BME280_pressure;Samples;Min_cycle;Max_cycle;Signal;HPM_P1;HPM_P2
2021/08/29 00:00:43;;;;;;;9.57;5.20;;;15.00;99.90;;;;;;4198009;28;20043;-74
2021/08/29 00:02:44;;;;;;;14.00;6.80;;;15.00;99.90;;;;;;4199059;28;20028;-73
2021/08/29 00:04:45;;;;;;;13.57;7.13;;;15.10;99.90;;;;;;4196401;28;20047;-73
2021/08/29 00:06:46;;;;;;;7.18;5.60;;;15.10;99.90;;;;;;4198232;28;20032;-73
2021/08/29 00:08:46;;;;;;;10.55;6.30;;;15.10;99.90;;;;;;4195077;28;20112;-73
2021/08/29 00:10:47;;;;;;;8.60;5.95;;;15.10;99.90;;;;;;4196771;28;20032;-72
2021/08/29 00:12:47;;;;;;;15.88;6.32;;;15.10;99.90;;;;;;4178314;28;20518;-73
2021/08/29 00:14:48;;;;;;;10.98;6.05;;;15.00;99.90;;;;;;4196035;28;20032;-73
2021/08/29 00:16:49;;;;;;;13.23;6.15;;;15.10;99.90;;;;;;4177446;28;20040;-73
2021/08/29 00:18:49;;;;;;;9.75;5.55;;;15.10;99.90;;;;;;4196677;28;20028;-74
2021/08/29 00:20:50;;;;;;;10.55;5.93;;;15.10;99.90;;;;;;4195227;28;20032;-73
2021/08/29 00:22:51;;;;;;;11.00;5.82;;;15.10;99.90;;;;;;4177008;28;20492;-73
2021/08/29 00:24:51;;;;;;;12.65;5.18;;;15.10;99.90;;;;;;4174804;28;20033;-74
2021/08/29 00:26:52;;;;;;;9.77;5.07;;;15.10;99.90;;;;;;4196431;28;20697;-73
2021/08/29 00:28:53;;;;;;;16.17;7.20;;;15.10;99.90;;;;;;4192383;28;20032;-74
2021/08/29 00:30:54;;;;;;;12.48;6.50;;;15.10;99.90;;;;;;4194752;28;20024;-73
2021/08/29 00:32:55;;;;;;;11.75;5.53;;;15.10;99.90;;;;;;4195498;28;20043;-73
2021/08/29 00:34:55;;;;;;;12.27;7.13;;;15.10;99.90;;;;;;4195948;28;20053;-73
2021/08/29 00:36:56;;;;;;;18.10;6.10;;;15.10;99.90;;;;;;4195027;28;20047;-74
2021/08/29 00:38:56;;;;;;;9.98;6.32;;;15.10;99.90;;;;;;4195530;28;20067;-73
2021/08/29 00:40:57;;;;;;;9.32;6.07;;;15.20;99.90;;;;;;4196508;28;20032;-73
2021/08/29 00:42:57;;;;;;;11.57;5.28;;;15.20;99.90;;;;;;4195091;28;20055;-73
2021/08/29 00:44:58;;;;;;;10.77;5.78;;;15.20;99.90;;;;;;4196251;28;20400;-73
2021/08/29 00:46:58;;;;;;;12.38;6.88;;;15.20;99.90;;;;;;4196299;28;20105;-73
2021/08/29 00:48:59;;;;;;;14.30;6.57;;;15.20;99.90;;;;;;4178612;28;20039;-73
2021/08/29 00:51:00;;;;;;;18.85;6.07;;;15.10;99.90;;;;;;4195920;28;20456;-74
2021/08/29 00:53:04;;;;;;;10.00;6.15;;;15.10;99.90;;;;;;4177605;28;20484;-73
2021/08/29 00:55:05;;;;;;;15.43;5.75;;;15.10;99.90;;;;;;4194859;28;20147;-73
2021/08/29 00:57:09;;;;;;;14.07;7.20;;;15.10;99.90;;;;;;4196008;28;20495;-73
2021/08/29 00:59:10;;;;;;;15.88;5.95;;;15.10;99.90;;;;;;4195356;28;20562;-73
2021/08/29 01:01:13;;;;;;;15.90;7.55;;;15.20;99.90;;;;;;4197087;28;20047;-73
2021/08/29 01:03:22;;;;;;;12.95;6.57;;;15.20;99.90;;;;;;4194964;28;20059;-72
2021/08/29 01:05:29;;;;;;;12.40;5.95;;;15.10;99.90;;;;;;4196522;28;20393;-72
2021/08/29 01:07:56;;;;;;;15.95;4.85;;;15.20;99.90;;;;;;4195132;28;20115;-72
2021/08/29 01:10:01;;;;;;;17.67;6.45;;;15.20;99.90;;;;;;4196578;28;20028;-73
2021/08/29 01:12:02;;;;;;;10.75;6.18;;;15.30;99.90;;;;;;4194184;28;20032;-73
2021/08/29 01:14:12;;;;;;;15.20;6.95;;;15.30;99.90;;;;;;4177393;28;20068;-73
2021/08/29 01:16:18;;;;;;;10.43;5.53;;;15.30;99.90;;;;;;4194650;28;20031;-73
2021/08/29 01:18:22;;;;;;;21.40;6.25;;;15.20;99.90;;;;;;4195241;28;20028;-73
2021/08/29 01:20:58;;;;;;;13.18;6.15;;;15.30;99.90;;;;;;4193923;28;20125;-73
2021/08/29 01:23:01;;;;;;;15.18;6.72;;;15.40;99.90;;;;;;4194667;28;20631;-72
2021/08/29 01:25:03;;;;;;;12.07;5.87;;;15.40;99.90;;;;;;4197100;28;20577;-73
2021/08/29 01:27:23;;;;;;;16.08;6.75;;;15.40;99.90;;;;;;4174903;28;20780;-73
2021/08/29 01:29:27;;;;;;;13.63;6.30;;;15.40;99.90;;;;;;4193792;28;20031;-74
2021/08/29 01:31:30;;;;;;;13.18;6.30;;;15.40;99.90;;;;;;4175053;28;20391;-73
2021/08/29 01:33:30;;;;;;;14.57;6.45;;;15.50;99.90;;;;;;4195867;28;20417;-72
2021/08/29 01:35:31;;;;;;;12.15;6.15;;;15.50;99.90;;;;;;4196195;28;20036;-74
2021/08/29 01:37:33;;;;;;;14.75;6.88;;;15.40;99.90;;;;;;4177864;28;20044;-74
2021/08/29 01:39:33;;;;;;;15.98;7.05;;;15.50;99.90;;;;;;4194531;28;20036;-74
2021/08/29 01:41:38;;;;;;;11.10;6.70;;;15.40;99.90;;;;;;4177041;28;20048;-74
2021/08/29 01:43:41;;;;;;;14.75;6.35;;;15.40;99.90;;;;;;4177647;28;20467;-73
2021/08/29 01:45:42;;;;;;;12.63;6.22;;;15.50;99.90;;;;;;4179371;28;20032;-72
2021/08/29 01:47:43;;;;;;;12.48;6.38;;;15.60;99.90;;;;;;4178704;28;20051;-72
2021/08/29 01:49:45;;;;;;;18.17;7.90;;;15.60;99.90;;;;;;4176026;28;20541;-73
2021/08/29 01:51:45;;;;;;;13.53;6.13;;;15.60;99.90;;;;;;4180207;28;20047;-72
2021/08/29 01:53:46;;;;;;;10.50;5.72;;;15.60;99.90;;;;;;4179545;28;20044;-73
2021/08/29 01:55:49;;;;;;;14.77;5.88;;;15.60;99.90;;;;;;4184109;28;20441;-73
2021/08/29 01:57:50;;;;;;;11.57;5.47;;;15.60;99.90;;;;;;4181254;28;20044;-73
2021/08/29 01:59:50;;;;;;;11.07;6.18;;;15.60;99.90;;;;;;4181987;28;20163;-73
2021/08/29 02:01:51;;;;;;;9.35;5.72;;;15.60;99.90;;;;;;4180533;28;20384;-72
2021/08/29 02:03:52;;;;;;;13.93;6.30;;;15.50;99.90;;;;;;4184020;28;20384;-72
2021/08/29 02:06:20;;;;;;;12.90;6.10;;;15.50;99.90;;;;;;4181089;28;20043;-72
2021/08/29 02:08:21;;;;;;;14.43;6.53;;;15.50;99.90;;;;;;4181901;28;20139;-73
2021/08/29 02:10:24;;;;;;;10.35;5.85;;;15.50;99.90;;;;;;4182508;28;20075;-73
2021/08/29 02:12:28;;;;;;;12.60;5.82;;;15.60;99.90;;;;;;4183010;28;20039;-73
2021/08/29 02:14:37;;;;;;;13.52;6.30;;;15.60;99.90;;;;;;4180510;28;20036;-73
2021/08/29 02:16:42;;;;;;;17.00;6.00;;;15.60;99.90;;;;;;4181767;28;20052;-73
2021/08/29 02:18:44;;;;;;;10.70;6.28;;;15.60;99.90;;;;;;4181946;28;20047;-74
2021/08/29 02:20:47;;;;;;;17.37;6.70;;;15.70;99.90;;;;;;4179375;28;20665;-74
2021/08/29 02:22:49;;;;;;;17.38;6.45;;;15.60;99.90;;;;;;4183108;28;20404;-73
2021/08/29 02:24:50;;;;;;;13.15;5.40;;;15.60;99.90;;;;;;4181819;28;20123;-73
2021/08/29 02:26:51;;;;;;;12.95;5.95;;;15.50;99.90;;;;;;4182898;28;20064;-73
2021/08/29 02:28:52;;;;;;;9.10;5.47;;;15.50;99.90;;;;;;4182131;28;20036;-73
2021/08/29 02:30:54;;;;;;;11.70;6.10;;;15.50;99.90;;;;;;4179899;28;20036;-74
2021/08/29 02:32:55;;;;;;;9.10;5.15;;;15.60;99.90;;;;;;4181531;28;20044;-73
2021/08/29 02:34:56;;;;;;;13.60;5.90;;;15.60;99.90;;;;;;4181154;28;21086;-73
2021/08/29 02:36:57;;;;;;;18.50;6.60;;;15.60;99.90;;;;;;4178963;28;20029;-73
2021/08/29 02:39:00;;;;;;;12.60;5.90;;;15.60;99.90;;;;;;4182181;28;20099;-74
2021/08/29 02:41:03;;;;;;;15.38;5.80;;;15.60;99.90;;;;;;4181213;28;20041;-72
2021/08/29 02:43:04;;;;;;;13.60;6.40;;;15.50;99.90;;;;;;4181575;28;20048;-73
2021/08/29 02:45:09;;;;;;;12.20;5.75;;;15.50;99.90;;;;;;4177831;28;20048;-72
2021/08/29 02:47:11;;;;;;;10.82;6.13;;;15.40;99.90;;;;;;4196172;28;20055;-73
2021/08/29 02:49:12;;;;;;;10.13;5.45;;;15.50;99.90;;;;;;4178447;28;20060;-73
2021/08/29 02:51:14;;;;;;;8.05;5.47;;;15.50;99.90;;;;;;4197897;28;20024;-73
2021/08/29 02:53:16;;;;;;;14.43;6.82;;;15.50;99.90;;;;;;4198625;28;20055;-73
2021/08/29 02:55:19;;;;;;;9.60;5.80;;;15.50;99.90;;;;;;4196402;28;20403;-73
2021/08/29 02:57:21;;;;;;;12.33;5.97;;;15.50;99.90;;;;;;4178773;28;20699;-73
2021/08/29 02:59:22;;;;;;;12.23;5.90;;;15.60;99.90;;;;;;4178506;28;20411;-73
2021/08/29 03:01:23;;;;;;;12.43;5.85;;;15.60;99.90;;;;;;4197195;28;20040;-73
2021/08/29 03:03:24;;;;;;;8.90;5.60;;;15.60;99.90;;;;;;4178468;28;20047;-73
2021/08/29 03:05:25;;;;;;;10.05;5.45;;;15.60;99.90;;;;;;4195277;28;20036;-73
2021/08/29 03:07:26;;;;;;;11.32;6.32;;;15.50;99.90;;;;;;4177076;28;20037;-73
2021/08/29 03:09:31;;;;;;;10.55;5.18;;;15.50;99.90;;;;;;4198723;28;20467;-73
2021/08/29 03:11:33;;;;;;;11.32;5.47;;;15.50;99.90;;;;;;4179494;28;20036;-73
2021/08/29 03:13:35;;;;;;;11.88;5.70;;;15.50;99.90;;;;;;4197596;28;20069;-73
2021/08/29 03:15:35;;;;;;;14.05;6.40;;;15.50;99.90;;;;;;4196720;28;20172;-73
2021/08/29 03:17:36;;;;;;;10.55;5.22;;;15.50;99.90;;;;;;4197200;28;20028;-74
2021/08/29 03:19:38;;;;;;;10.15;5.85;;;15.40;99.90;;;;;;4197727;28;24021;-73
2021/08/29 03:21:39;;;;;;;12.50;5.37;;;15.40;99.90;;;;;;4198422;28;20032;-73
2021/08/29 03:23:40;;;;;;;9.95;6.05;;;15.40;99.90;;;;;;4195202;28;20121;-73
2021/08/29 03:25:41;;;;;;;8.85;5.30;;;15.50;99.90;;;;;;4198058;28;20119;-73
2021/08/29 03:27:42;;;;;;;10.32;5.00;;;15.40;99.90;;;;;;4197036;28;20043;-73
2021/08/29 03:29:43;;;;;;;14.70;6.50;;;15.50;99.90;;;;;;4178035;28;20091;-73
2021/08/29 03:31:44;;;;;;;17.23;5.65;;;15.60;99.90;;;;;;4194865;28;20033;-73
2021/08/29 03:33:47;;;;;;;10.35;6.40;;;15.60;99.90;;;;;;4195033;28;20043;-73
2021/08/29 03:35:47;;;;;;;;;;;15.60;99.90;;;;;;4196472;28;20399;-74
2021/08/29 03:37:49;;;;;;;14.52;5.25;;;15.60;99.90;;;;;;4194279;28;19919;-73
2021/08/29 03:39:51;;;;;;;10.70;5.03;;;15.60;99.90;;;;;;4177375;28;20131;-73
2021/08/29 03:41:55;;;;;;;10.80;6.78;;;15.70;99.90;;;;;;4195512;28;20036;-73
2021/08/29 03:43:56;;;;;;;17.80;5.72;;;;;;;;;;4195551;28;20070;-73
2021/08/29 03:45:58;;;;;;;10.00;5.70;;;15.70;99.90;;;;;;4194661;28;20047;-73
2021/08/29 03:47:59;;;;;;;11.35;5.53;;;15.70;99.90;;;;;;4195357;28;20360;-73
2021/08/29 03:50:00;;;;;;;9.70;5.25;;;15.60;99.90;;;;;;4195447;28;20468;-73
2021/08/29 03:52:01;;;;;;;12.13;6.43;;;15.60;99.90;;;;;;4195478;28;20039;-74
2021/08/29 03:54:02;;;;;;;14.35;6.68;;;15.50;99.90;;;;;;4197636;28;20037;-73
2021/08/29 03:56:04;;;;;;;13.23;6.28;;;15.60;99.90;;;;;;4196879;28;20606;-73
2021/08/29 03:58:05;;;;;;;10.82;6.22;;;15.60;99.90;;;;;;4195825;28;20063;-73
2021/08/29 04:00:06;;;;;;;11.15;5.88;;;15.60;99.90;;;;;;4178546;28;20029;-74
2021/08/29 04:02:08;;;;;;;11.15;5.43;;;15.70;99.90;;;;;;4196031;28;20032;-73
2021/08/29 04:04:08;;;;;;;9.20;5.78;;;15.70;99.90;;;;;;4179476;28;20403;-72
2021/08/29 04:06:12;;;;;;;12.40;5.53;;;15.60;99.90;;;;;;4195366;28;20040;-73
2021/08/29 04:08:16;;;;;;;10.13;5.57;;;15.60;99.90;;;;;;4179318;28;20029;-73
2021/08/29 04:10:20;;;;;;;10.27;5.53;;;15.60;99.90;;;;;;4194923;28;20050;-73
2021/08/29 04:12:26;;;;;;;12.07;6.10;;;15.60;99.90;;;;;;4196756;28;20123;-73
2021/08/29 04:14:29;;;;;;;11.13;5.80;;;15.60;99.90;;;;;;4177122;28;20464;-73
2021/08/29 04:16:33;;;;;;;14.43;5.82;;;15.60;99.90;;;;;;4195703;28;20044;-73
2021/08/29 04:18:51;;;;;;;9.88;5.18;;;15.60;99.90;;;;;;4176931;28;20543;-72
2021/08/29 04:20:52;;;;;;;13.05;5.45;;;15.60;99.90;;;;;;4195779;28;20445;-73
2021/08/29 04:22:53;;;;;;;12.48;5.18;;;15.70;99.90;;;;;;4195956;28;20130;-73
2021/08/29 04:24:54;;;;;;;9.93;5.97;;;15.70;99.90;;;;;;4197377;28;20031;-73
2021/08/29 04:26:55;;;;;;;11.18;5.90;;;15.70;99.90;;;;;;4197493;28;20028;-72
2021/08/29 04:28:56;;;;;;;13.30;6.07;;;15.80;99.90;;;;;;4196556;28;20142;-73
2021/08/29 04:31:00;;;;;;;15.80;5.90;;;15.70;99.90;;;;;;4194727;28;20123;-73
2021/08/29 04:33:00;;;;;;;12.52;5.43;;;15.70;99.90;;;;;;4194700;28;20052;-73
2021/08/29 04:35:01;;;;;;;15.70;5.70;;;15.70;99.90;;;;;;4194981;28;20028;-73
2021/08/29 04:37:01;;;;;;;9.35;5.45;;;15.60;99.90;;;;;;4195330;28;20169;-73
2021/08/29 04:39:05;;;;;;;14.48;5.13;;;15.60;99.90;;;;;;4194758;28;20119;-74
2021/08/29 04:41:06;;;;;;;8.63;5.65;;;15.60;99.90;;;;;;4194860;28;20122;-73
2021/08/29 04:43:06;;;;;;;16.73;5.57;;;15.60;99.90;;;;;;4194440;28;20518;-74
2021/08/29 04:45:07;;;;;;;12.15;5.20;;;15.70;99.90;;;;;;4195433;28;20024;-72
2021/08/29 04:47:08;;;;;;;16.75;5.50;;;15.70;99.90;;;;;;4194202;28;20032;-73
2021/08/29 04:49:09;;;;;;;11.73;5.28;;;15.70;99.90;;;;;;4194785;28;20038;-71
2021/08/29 04:51:10;;;;;;;10.10;5.47;;;15.70;99.90;;;;;;4176489;28;20124;-72
2021/08/29 04:53:10;;;;;;;14.48;5.05;;;15.70;99.90;;;;;;4198394;28;20024;-72
2021/08/29 04:55:11;;;;;;;11.77;5.18;;;15.70;99.90;;;;;;4176122;28;20029;-71
2021/08/29 04:57:12;;;;;;;14.82;6.13;;;15.70;99.90;;;;;;4196682;28;20063;-73
2021/08/29 04:59:12;;;;;;;14.48;4.82;;;15.70;99.90;;;;;;4177934;28;20040;-72
2021/08/29 05:01:13;;;;;;;10.18;4.80;;;15.60;99.90;;;;;;4179509;28;20042;-73
2021/08/29 05:03:14;;;;;;;13.63;4.70;;;15.70;99.90;;;;;;4193575;28;20502;-73
2021/08/29 05:05:15;;;;;;;15.38;6.20;;;15.80;99.90;;;;;;4195363;28;20043;-73
2021/08/29 05:07:15;;;;;;;10.57;4.95;;;15.80;99.90;;;;;;4177246;28;20033;-74
2021/08/29 05:09:16;;;;;;;17.13;5.22;;;15.80;99.90;;;;;;4198140;28;20471;-73
2021/08/29 05:11:16;;;;;;;10.63;4.95;;;15.80;99.90;;;;;;4195340;28;20020;-73
2021/08/29 05:13:17;;;;;;;15.82;5.28;;;15.80;99.90;;;;;;4195155;28;20067;-72
2021/08/29 05:15:18;;;;;;;16.90;5.43;;;15.80;99.90;;;;;;4195527;28;20128;-72
2021/08/29 05:17:18;;;;;;;10.02;4.90;;;15.80;99.90;;;;;;4197811;28;20403;-73
2021/08/29 05:19:19;;;;;;;15.32;4.88;;;15.80;99.90;;;;;;4194767;28;20371;-73
2021/08/29 05:21:19;;;;;;;13.63;5.22;;;15.80;99.90;;;;;;4193873;28;20425;-72
2021/08/29 05:23:20;;;;;;;15.45;6.05;;;15.70;99.90;;;;;;4195753;28;20076;-73
2021/08/29 05:25:21;;;;;;;17.35;6.30;;;15.80;99.90;;;;;;4195505;28;20028;-73
2021/08/29 05:27:21;;;;;;;20.50;6.38;;;15.90;99.90;;;;;;4176331;28;20448;-73
2021/08/29 05:29:22;;;;;;;16.63;5.18;;;15.80;99.90;;;;;;4194230;28;20036;-73
2021/08/29 05:31:22;;;;;;;13.68;5.63;;;15.80;99.90;;;;;;4178728;28;20047;-73
2021/08/29 05:33:23;;;;;;;14.55;5.60;;;15.90;99.90;;;;;;4178674;28;20036;-73
2021/08/29 05:35:23;;;;;;;14.05;5.38;;;16.00;99.90;;;;;;4194939;28;20474;-73
2021/08/29 05:37:24;;;;;;;22.92;5.28;;;16.00;99.90;;;;;;4178055;28;20502;-73
2021/08/29 05:39:25;;;;;;;13.80;4.60;;;16.00;99.90;;;;;;4195538;28;20349;-73
2021/08/29 05:41:25;;;;;;;12.23;5.40;;;16.10;99.90;;;;;;4196503;28;20120;-73
2021/08/29 05:43:26;;;;;;;11.40;4.93;;;16.20;99.90;;;;;;4195198;28;20412;-73
2021/08/29 05:45:27;;;;;;;19.42;6.25;;;16.30;99.90;;;;;;4195438;28;20080;-73
2021/08/29 05:47:27;;;;;;;14.55;5.50;;;16.20;99.90;;;;;;4194921;28;20055;-73
2021/08/29 05:49:28;;;;;;;15.45;5.65;;;16.40;99.90;;;;;;4177851;28;20040;-73
2021/08/29 05:51:29;;;;;;;15.38;5.28;;;16.30;99.90;;;;;;4176368;28;20404;-74
2021/08/29 05:53:30;;;;;;;13.88;5.72;;;16.40;99.90;;;;;;4196409;28;20405;-73
2021/08/29 05:55:30;;;;;;;11.20;4.60;;;16.40;99.90;;;;;;4178653;28;20139;-73
2021/08/29 05:57:31;;;;;;;13.68;5.30;;;16.40;99.90;;;;;;4196495;28;20108;-73
2021/08/29 05:59:32;;;;;;;15.15;5.07;;;16.50;99.90;;;;;;4177476;28;20093;-72
2021/08/29 06:01:32;;;;;;;16.55;5.13;;;16.60;99.90;;;;;;4194662;28;20544;-73
2021/08/29 06:03:37;;;;;;;12.30;4.88;;;16.50;99.90;;;;;;4195429;28;20861;-71
2021/08/29 06:05:38;;;;;;;14.02;4.57;;;16.60;99.90;;;;;;4193680;28;20115;-71
2021/08/29 06:07:38;;;;;;;11.38;4.65;;;16.60;99.90;;;;;;4194624;28;20036;-74
2021/08/29 06:09:39;;;;;;;14.52;4.57;;;16.60;99.90;;;;;;4194147;28;20176;-73
2021/08/29 06:11:40;;;;;;;14.90;5.25;;;16.60;99.90;;;;;;4179775;28;20041;-73
2021/08/29 06:13:40;;;;;;;15.48;5.85;;;16.60;99.90;;;;;;4193906;28;20491;-73
2021/08/29 06:15:41;;;;;;;15.63;5.15;;;16.70;99.90;;;;;;4194245;28;20056;-72
2021/08/29 06:17:42;;;;;;;8.70;4.22;;;16.70;99.90;;;;;;4193136;28;20464;-73
2021/08/29 06:19:42;;;;;;;10.82;4.35;;;16.60;99.90;;;;;;4195930;28;20085;-73
2021/08/29 06:21:43;;;;;;;14.05;5.35;;;16.60;99.90;;;;;;4192800;28;20037;-73
2021/08/29 06:23:44;;;;;;;9.75;4.60;;;16.60;99.90;;;;;;4193816;28;20483;-73
2021/08/29 06:25:45;;;;;;;15.02;5.10;;;16.70;99.90;;;;;;4192500;28;20031;-73
2021/08/29 06:27:45;;;;;;;9.05;4.60;;;16.70;99.90;;;;;;4193047;28;20044;-73
2021/08/29 06:29:46;;;;;;;12.80;6.07;;;16.70;99.90;;;;;;4195683;28;20441;-73
2021/08/29 06:31:47;;;;;;;17.55;6.00;;;16.60;99.90;;;;;;4194211;28;20044;-73
2021/08/29 06:33:47;;;;;;;14.95;5.32;;;16.60;99.90;;;;;;4193166;28;20040;-71
2021/08/29 06:35:48;;;;;;;11.13;5.13;;;16.60;99.90;;;;;;4194127;28;20513;-73
2021/08/29 06:37:48;;;;;;;16.35;5.43;;;16.60;99.90;;;;;;4193402;28;20028;-73
2021/08/29 06:39:49;;;;;;;12.07;5.38;;;16.60;99.90;;;;;;4195188;28;20036;-73
2021/08/29 06:41:50;;;;;;;15.60;6.70;;;16.60;99.90;;;;;;4198744;28;20072;-73
2021/08/29 06:43:50;;;;;;;17.33;7.38;;;16.60;99.90;;;;;;4196358;28;20044;-73
2021/08/29 06:45:51;;;;;;;17.98;7.35;;;16.60;99.90;;;;;;4197571;28;20525;-73
2021/08/29 06:47:52;;;;;;;16.35;6.25;;;16.60;99.90;;;;;;4177541;28;20046;-73
2021/08/29 06:49:52;;;;;;;16.08;6.50;;;16.60;99.90;;;;;;4180331;28;20441;-73
2021/08/29 06:51:53;;;;;;;12.98;4.50;;;16.60;99.90;;;;;;4197402;28;20113;-73
2021/08/29 06:53:53;;;;;;;10.10;4.68;;;16.60;99.90;;;;;;4197131;28;20403;-73
2021/08/29 06:55:54;;;;;;;19.95;5.80;;;16.70;99.90;;;;;;4179241;28;20048;-73
2021/08/29 06:57:54;;;;;;;16.10;4.97;;;16.80;99.90;;;;;;4198105;28;20040;-72
2021/08/29 06:59:55;;;;;;;8.80;4.28;;;16.90;99.90;;;;;;4196161;28;20101;-73
2021/08/29 07:01:56;;;;;;;16.75;5.45;;;17.00;99.90;;;;;;4195793;28;20123;-72
2021/08/29 07:03:57;;;;;;;15.20;5.78;;;17.00;99.90;;;;;;4179563;28;20067;-73
2021/08/29 07:05:57;;;;;;;12.52;4.22;;;17.00;99.90;;;;;;4180382;28;20044;-73
2021/08/29 07:07:58;;;;;;;14.68;5.53;;;17.00;99.90;;;;;;4179937;28;20407;-73
2021/08/29 07:09:59;;;;;;;6.95;4.68;;;17.00;99.90;;;;;;4180123;28;20556;-73
2021/08/29 07:11:59;;;;;;;13.30;5.85;;;17.10;99.90;;;;;;4181844;28;20123;-73
2021/08/29 07:14:00;;;;;;;13.73;5.40;;;17.10;99.90;;;;;;4197110;28;20077;-73
2021/08/29 07:16:01;;;;;;;12.55;4.93;;;17.10;99.90;;;;;;4177294;28;20090;-74
2021/08/29 07:18:01;;;;;;;12.50;4.70;;;17.10;99.90;;;;;;4194931;28;20060;-74
2021/08/29 07:20:03;;;;;;;25.75;6.55;;;17.10;99.90;;;;;;4194918;28;20462;-73
2021/08/29 07:22:04;;;;;;;17.55;5.22;;;17.10;99.90;;;;;;4196931;28;20044;-73
2021/08/29 07:24:04;;;;;;;13.38;5.40;;;17.10;99.90;;;;;;4195689;28;20028;-73
2021/08/29 07:26:05;;;;;;;16.80;4.97;;;17.10;99.90;;;;;;4195505;28;20452;-73
2021/08/29 07:28:06;;;;;;;18.85;5.18;;;17.00;99.90;;;;;;4178316;28;20037;-73
2021/08/29 07:30:07;;;;;;;13.70;5.72;;;17.00;99.90;;;;;;4199001;28;20031;-73
2021/08/29 07:32:08;;;;;;;16.17;5.32;;;17.00;99.90;;;;;;4195173;28;20036;-72
2021/08/29 07:34:08;;;;;;;13.95;4.82;;;17.10;99.90;;;;;;4193512;28;20032;-73
2021/08/29 07:36:09;;;;;;;12.20;4.70;;;17.20;99.90;;;;;;4196039;28;20043;-73
2021/08/29 07:38:10;;;;;;;14.35;5.50;;;17.20;99.90;;;;;;4195912;28;20028;-74
2021/08/29 07:40:11;;;;;;;17.13;5.57;;;17.30;99.90;;;;;;4199000;28;20063;-73
2021/08/29 07:42:12;;;;;;;17.00;5.10;;;17.40;99.90;;;;;;4198604;28;20048;-73
2021/08/29 07:44:12;;;;;;;14.52;5.93;;;17.40;99.90;;;;;;4178892;28;20187;-73
2021/08/29 07:46:13;;;;;;;11.90;5.15;;;17.40;99.90;;;;;;4197084;28;20032;-73
2021/08/29 07:48:14;;;;;;;16.10;5.97;;;17.30;99.90;;;;;;4197595;28;20032;-72
2021/08/29 07:50:14;;;;;;;13.45;5.50;;;17.20;99.90;;;;;;4193685;28;20074;-72
2021/08/29 07:52:15;;;;;;;19.00;8.10;;;17.10;99.90;;;;;;4197234;28;20456;-73
2021/08/29 07:54:16;;;;;;;18.13;5.45;;;;;;;;;;4195349;28;20114;-73
2021/08/29 07:56:17;;;;;;;11.30;4.63;;;17.20;99.90;;;;;;4197333;28;20052;-73
2021/08/29 07:58:18;;;;;;;15.90;6.00;;;17.20;99.90;;;;;;4196212;28;20510;-72
2021/08/29 08:00:20;;;;;;;15.40;5.25;;;17.20;99.90;;;;;;4196407;28;20044;-73
2021/08/29 08:02:20;;;;;;;17.02;4.75;;;17.10;99.90;;;;;;4196469;28;20039;-74
2021/08/29 08:04:21;;;;;;;19.55;5.47;;;16.90;99.90;;;;;;4196394;28;20048;-74
2021/08/29 08:06:22;;;;;;;15.82;4.68;;;16.70;99.90;;;;;;4179592;28;20048;-75
2021/08/29 08:08:22;;;;;;;13.50;5.18;;;16.60;99.90;;;;;;4178369;28;20403;-75
2021/08/29 08:10:25;;;;;;;16.67;4.88;;;16.50;99.90;;;;;;4198977;28;20032;-74
2021/08/29 08:12:26;;;;;;;16.92;5.00;;;16.50;99.90;;;;;;4194926;28;20180;-74
2021/08/29 08:14:26;;;;;;;19.65;6.57;;;16.60;99.90;;;;;;4194773;28;20058;-75
2021/08/29 08:16:28;;;;;;;11.23;4.53;;;16.60;99.90;;;;;;4195415;28;20035;-75
2021/08/29 08:18:28;;;;;;;14.30;4.75;;;16.60;99.90;;;;;;4194420;28;20070;-75
2021/08/29 08:20:30;;;;;;;17.73;5.30;;;16.70;99.90;;;;;;4175487;28;20041;-75
2021/08/29 08:22:30;;;;;;;12.55;4.75;;;16.70;99.90;;;;;;4177191;28;20080;-75
2021/08/29 08:24:31;;;;;;;13.18;4.75;;;16.80;99.90;;;;;;4194402;28;20160;-76
2021/08/29 08:26:32;;;;;;;15.18;5.53;;;16.70;99.90;;;;;;4196426;28;20497;-75
2021/08/29 08:28:33;;;;;;;14.00;5.38;;;16.50;99.90;;;;;;4195309;28;20376;-75
2021/08/29 08:30:34;;;;;;;16.95;5.63;;;16.40;99.90;;;;;;4195958;28;20032;-75
2021/08/29 08:32:34;;;;;;;17.13;4.88;;;16.30;99.90;;;;;;4180000;28;20514;-75
2021/08/29 08:34:35;;;;;;;15.93;4.88;;;16.10;99.90;;;;;;4195814;28;20448;-75
2021/08/29 08:36:35;;;;;;;16.75;5.38;;;16.10;99.90;;;;;;4178027;28;20080;-77
2021/08/29 08:38:36;;;;;;;20.50;7.05;;;16.00;99.90;;;;;;4178251;28;20562;-74
2021/08/29 08:40:41;;;;;;;17.45;6.28;;;15.90;99.90;;;;;;4178594;28;20024;-74
2021/08/29 08:42:42;;;;;;;18.30;6.95;;;15.80;99.90;;;;;;4192175;28;20060;-74
2021/08/29 08:44:44;;;;;;;13.70;5.53;;;15.70;99.90;;;;;;4179134;28;20156;-74
2021/08/29 08:46:45;;;;;;;15.40;4.97;;;15.70;99.90;;;;;;4177630;28;20069;-75
2021/08/29 08:48:49;;;;;;;20.60;5.75;;;15.60;99.90;;;;;;4176350;28;20495;-75
2021/08/29 08:50:51;;;;;;;13.48;5.63;;;15.60;99.90;;;;;;4192043;28;20149;-75
2021/08/29 08:52:56;;;;;;;14.23;5.90;;;15.60;99.90;;;;;;4192310;28;20046;-75
2021/08/29 08:54:59;;;;;;;17.42;5.95;;;15.50;99.90;;;;;;4191235;28;20794;-75
2021/08/29 08:57:00;;;;;;;16.35;5.15;;;15.40;99.90;;;;;;4192116;28;20048;-75
2021/08/29 08:59:01;;;;;;;21.20;6.00;;;15.50;99.90;;;;;;4194787;28;20131;-75
2021/08/29 09:01:03;;;;;;;21.42;5.90;;;15.50;99.90;;;;;;4175541;28;20055;-73
2021/08/29 09:03:04;;;;;;;16.37;5.47;;;15.60;99.90;;;;;;4192825;28;20077;-75
2021/08/29 09:05:07;;;;;;;13.50;5.72;;;15.60;99.90;;;;;;4178484;28;20311;-75
2021/08/29 09:07:08;;;;;;;11.00;5.30;;;15.60;99.90;;;;;;4195103;28;20148;-75
2021/08/29 09:09:08;;;;;;;13.40;6.43;;;15.60;99.90;;;;;;4193387;28;20051;-73
2021/08/29 09:11:09;;;;;;;20.40;5.53;;;15.60;99.90;;;;;;4178115;28;20032;-73
2021/08/29 09:13:10;;;;;;;13.70;5.70;;;15.70;99.90;;;;;;4193531;28;20043;-75
2021/08/29 09:15:20;;;;;;;13.95;5.63;;;;;;;;;;4195282;28;20028;-75
2021/08/29 09:17:39;;;;;;;14.85;6.38;;;15.70;99.90;;;;;;4194043;28;20731;-75
2021/08/29 09:19:40;;;;;;;21.42;6.40;;;15.70;99.90;;;;;;4179320;28;20036;-76
2021/08/29 09:21:40;;;;;;;15.48;6.15;;;15.90;99.90;;;;;;4195546;28;20388;-76
2021/08/29 09:23:41;;;;;;;13.85;4.97;;;16.00;99.90;;;;;;4192525;28;20062;-74
2021/08/29 09:25:45;;;;;;;19.00;7.65;;;16.00;99.90;;;;;;4194757;28;20060;-75
2021/08/29 09:27:48;;;;;;;17.60;6.85;;;16.10;99.90;;;;;;4192055;28;20071;-76
2021/08/29 09:29:50;;;;;;;12.75;5.43;;;16.10;99.90;;;;;;4192723;28;20047;-73
2021/08/29 09:31:51;;;;;;;13.53;5.50;;;16.20;99.90;;;;;;4192824;28;20079;-75
2021/08/29 09:34:02;;;;;;;16.80;5.53;;;16.30;99.90;;;;;;4176533;28;20282;-75
2021/08/29 09:36:03;;;;;;;14.00;5.82;;;16.30;99.90;;;;;;4191722;28;20097;-75
2021/08/29 09:38:09;;;;;;;18.50;4.88;;;16.40;99.90;;;;;;4193419;28;20031;-74
2021/08/29 09:40:29;;;;;;;17.88;6.25;;;16.40;99.90;;;;;;4194734;28;20066;-75
2021/08/29 09:42:30;;;;;;;18.83;6.15;;;16.30;99.90;;;;;;4193615;28;20131;-74
2021/08/29 09:44:33;;;;;;;18.42;7.78;;;16.30;99.90;;;;;;4196361;28;20117;-76
2021/08/29 09:46:34;;;;;;;;;;;16.30;99.90;;;;;;4175973;28;20046;-74
2021/08/29 09:48:34;;;;;;;22.40;6.15;;;16.30;99.90;;;;;;4176689;28;19912;-75
2021/08/29 09:50:38;;;;;;;9.43;5.20;;;16.40;99.90;;;;;;4192290;28;20028;-75
2021/08/29 09:52:39;;;;;;;17.95;6.10;;;16.40;99.90;;;;;;4195647;28;20036;-73
2021/08/29 09:54:43;;;;;;;20.95;5.65;;;16.40;99.90;;;;;;4176741;28;20059;-77
2021/08/29 09:56:50;;;;;;;18.08;5.80;;;16.30;99.90;;;;;;4196734;28;20108;-74
2021/08/29 09:58:53;;;;;;;25.23;6.63;;;16.30;99.90;;;;;;4191448;28;20050;-74
2021/08/29 10:01:13;;;;;;;18.95;6.90;;;16.20;99.90;;;;;;4191252;28;20640;-74
2021/08/29 10:03:13;;;;;;;16.17;6.15;;;16.20;99.90;;;;;;4191895;28;20036;-75
2021/08/29 10:05:19;;;;;;;19.45;5.88;;;16.20;99.90;;;;;;4196556;28;20035;-75
2021/08/29 10:07:20;;;;;;;20.48;5.60;;;16.10;99.90;;;;;;4209298;28;20076;-75
2021/08/29 10:09:26;;;;;;;16.88;6.65;;;16.00;99.90;;;;;;4207646;28;20028;-75
2021/08/29 10:11:29;;;;;;;11.70;4.72;;;15.90;99.90;;;;;;4198926;28;20100;-73
2021/08/29 10:13:30;;;;;;;18.92;6.75;;;15.80;99.90;;;;;;4194261;28;20073;-75
2021/08/29 10:15:35;;;;;;;15.50;5.75;;;15.70;99.90;;;;;;4176927;28;20064;-74
2021/08/29 10:17:39;;;;;;;19.30;6.10;;;15.70;99.90;;;;;;4178569;28;20442;-74
2021/08/29 10:19:41;;;;;;;14.13;5.65;;;15.70;99.90;;;;;;4197594;28;20062;-75
2021/08/29 10:21:41;;;;;;;15.13;5.45;;;15.70;99.90;;;;;;4196365;28;20022;-75
2021/08/29 10:23:45;;;;;;;18.90;6.07;;;15.70;99.90;;;;;;4196249;28;20609;-74
2021/08/29 10:25:49;;;;;;;12.90;4.85;;;15.80;99.90;;;;;;4188384;28;20040;-75
2021/08/29 10:27:58;;;;;;;16.13;5.63;;;15.80;99.90;;;;;;4194575;28;20115;-74